Time;durP1;ratioP1;P1;durP2;ratioP2;P2;SDS_P1;SDS_P2;PMS_P1;PMS_P2;Temp;Humidity;BMP_temperature;BMP_pressure;BME280_temperature;BME280_humidity;BME280_pressure;Samples;Min_cycle;Max_cycle;Signal;HPM_P1;HPM_P2
2023/05/15 00:01:12;;;;;;;11.20;9.60;;;22.50;62.80;;;;;;4760944;55;21500;-19
2023/05/15 00:06:13;;;;;;;12.37;9.18;;;22.50;62.80;;;;;;4771382;55;21007;-20
2023/05/15 00:11:13;;;;;;;10.80;9.55;;;22.50;62.80;;;;;;4811924;55;21091;-20
2023/05/15 00:16:14;;;;;;;11.15;9.88;;;22.50;62.80;;;;;;4720857;55;21070;-20
2023/05/15 00:21:15;;;;;;;10.88;9.23;;;22.50;62.80;;;;;;4714898;59;21071;-20
2023/05/15 00:26:19;;;;;;;11.80;9.20;;;22.50;62.80;;;;;;4716056;59;21462;-21
2023/05/15 00:31:20;;;;;;;10.07;9.07;;;22.50;62.80;;;;;;4739112;55;21534;-22
2023/05/15 00:36:23;;;;;;;11.30;9.18;;;22.50;62.80;;;;;;4717019;55;21024;-21
2023/05/15 00:41:27;;;;;;;11.98;9.65;;;22.50;62.80;;;;;;4716068;59;22170;-20
2023/05/15 00:46:30;;;;;;;12.60;10.00;;;22.50;62.90;;;;;;4735417;55;21497;-21
2023/05/15 00:51:32;;;;;;;12.73;9.82;;;22.50;62.90;;;;;;4731690;55;21055;-19
2023/05/15 00:56:33;;;;;;;11.15;8.93;;;22.50;62.90;;;;;;4771026;55;21553;-22
2023/05/15 01:01:34;;;;;;;10.80;9.13;;;22.50;62.90;;;;;;4721585;55;21055;-19
2023/05/15 01:06:35;;;;;;;11.00;8.98;;;22.50;63.00;;;;;;4722428;55;21533;-20
2023/05/15 01:11:38;;;;;;;13.65;9.70;;;22.50;62.90;;;;;;4730464;55;21020;-19
2023/05/15 01:16:40;;;;;;;10.80;9.25;;;22.50;62.90;;;;;;4861252;55;21031;-22
2023/05/15 01:25:22;;;;;;;10.43;9.20;;;22.50;63.00;;;;;;4734706;55;21518;-26
2023/05/15 01:30:33;;;;;;;10.73;8.60;;;22.50;63.10;;;;;;4765090;55;21830;-25
2023/05/15 01:35:49;;;;;;;11.80;9.40;;;22.50;63.20;;;;;;4722978;55;20996;-20
2023/05/15 01:41:09;;;;;;;10.48;9.38;;;22.50;63.10;;;;;;4842980;55;21019;-22
2023/05/15 01:46:14;;;;;;;9.45;8.45;;;22.50;63.10;;;;;;4738219;55;21114;-25
2023/05/15 01:51:16;;;;;;;9.63;8.32;;;22.50;63.10;;;;;;4715822;59;21545;-27
2023/05/15 01:56:18;;;;;;;10.07;8.40;;;22.50;63.10;;;;;;4854835;55;21013;-21
2023/05/15 02:01:21;;;;;;;9.68;8.68;;;22.50;63.10;;;;;;4790773;55;22271;-21
2023/05/15 02:06:23;;;;;;;9.88;7.70;;;22.50;63.10;;;;;;4746576;55;21008;-20
2023/05/15 02:11:24;;;;;;;8.15;7.35;;;22.50;63.10;;;;;;4743902;55;21035;-20
2023/05/15 02:16:25;;;;;;;9.40;8.32;;;22.50;63.20;;;;;;4735782;55;21545;-23
2023/05/15 02:21:26;;;;;;;9.27;7.80;;;22.50;63.20;;;;;;4737295;55;21518;-21
2023/05/15 02:27:30;;;;;;;9.52;8.25;;;22.50;63.20;;;;;;4757383;55;21012;-21
2023/05/15 02:35:19;;;;;;;8.93;8.10;;;22.50;63.20;;;;;;4811684;55;21553;-20
2023/05/15 02:40:23;;;;;;;9.82;8.77;;;22.50;63.20;;;;;;4882500;55;21087;-20
2023/05/15 02:45:25;;;;;;;9.25;8.30;;;22.50;63.20;;;;;;4726218;55;21102;-20
2023/05/15 02:50:26;;;;;;;9.55;8.55;;;22.40;63.20;;;;;;4732122;55;20999;-20
2023/05/15 02:55:27;;;;;;;8.98;7.97;;;22.50;63.20;;;;;;4715931;59;21098;-20
2023/05/15 03:00:28;;;;;;;9.00;8.10;;;22.40;63.20;;;;;;4752116;55;21048;-21
2023/05/15 03:05:32;;;;;;;9.82;8.13;;;22.50;63.30;;;;;;4765593;55;21160;-20
2023/05/15 03:10:32;;;;;;;8.73;7.80;;;22.50;63.20;;;;;;4908836;55;21065;-21
2023/05/15 03:15:33;;;;;;;9.30;7.95;;;22.40;63.20;;;;;;4798146;55;21578;-21
2023/05/15 03:20:34;;;;;;;9.60;7.87;;;22.50;63.20;;;;;;4714878;59;21039;-21
2023/05/15 03:25:36;;;;;;;9.73;8.27;;;22.50;63.20;;;;;;4756294;55;21530;-23
2023/05/15 03:30:37;;;;;;;9.57;7.80;;;22.50;63.30;;;;;;4789034;55;21126;-20
2023/05/15 03:35:38;;;;;;;8.80;7.90;;;22.40;63.20;;;;;;4720714;55;21143;-21
2023/05/15 03:40:39;;;;;;;9.25;8.32;;;22.40;63.20;;;;;;4820819;55;21027;-19
2023/05/15 03:45:40;;;;;;;8.63;7.72;;;22.50;63.30;;;;;;4721241;55;21478;-20
2023/05/15 03:50:42;;;;;;;9.35;7.60;;;22.40;63.20;;;;;;4822004;55;21019;-20
2023/05/15 03:55:43;;;;;;;8.25;7.25;;;22.50;63.40;;;;;;4756631;55;21019;-18
2023/05/15 04:00:44;;;;;;;9.38;7.93;;;22.40;63.30;;;;;;4761619;55;21016;-20
2023/05/15 04:05:48;;;;;;;8.80;7.55;;;22.40;63.30;;;;;;4735457;55;21015;-20
2023/05/15 04:10:49;;;;;;;10.38;7.97;;;22.40;63.40;;;;;;4765609;55;21443;-19
2023/05/15 04:15:50;;;;;;;8.77;7.47;;;22.40;63.40;;;;;;4763388;55;21019;-19
2023/05/15 04:20:51;;;;;;;8.45;7.57;;;22.40;63.40;;;;;;4740518;55;21483;-20
2023/05/15 04:25:53;;;;;;;9.05;7.75;;;22.40;63.40;;;;;;4764819;55;21516;-19
2023/05/15 04:30:57;;;;;;;9.90;7.85;;;22.40;63.50;;;;;;4764471;55;21604;-20
2023/05/15 04:35:58;;;;;;;8.57;7.65;;;22.40;63.50;;;;;;4792842;55;21569;-21
2023/05/15 04:40:59;;;;;;;8.70;7.90;;;22.40;63.50;;;;;;4734268;55;20991;-19
2023/05/15 04:46:00;;;;;;;9.20;7.50;;;22.40;63.60;;;;;;4797660;55;21612;-22
2023/05/15 04:51:01;;;;;;;9.25;7.62;;;22.40;63.60;;;;;;4734815;55;21019;-20
2023/05/15 04:56:02;;;;;;;8.23;7.43;;;22.40;63.60;;;;;;4761119;55;20980;-20
2023/05/15 05:01:03;;;;;;;9.38;7.78;;;22.40;63.60;;;;;;4800269;55;21050;-20
2023/05/15 05:06:04;;;;;;;8.57;7.55;;;22.40;63.70;;;;;;4789760;55;21480;-19
2023/05/15 05:11:05;;;;;;;8.05;7.25;;;22.40;63.70;;;;;;4783399;55;21007;-19
2023/05/15 05:16:06;;;;;;;8.85;7.62;;;22.40;63.60;;;;;;4725766;55;21505;-19
2023/05/15 05:21:07;;;;;;;8.70;7.78;;;22.40;63.70;;;;;;4811994;55;21027;-18
2023/05/15 05:26:08;;;;;;;7.97;7.05;;;22.40;63.60;;;;;;4770198;55;21558;-25
2023/05/15 05:31:09;;;;;;;7.50;6.80;;;22.40;63.70;;;;;;4733592;55;21043;-20
2023/05/15 05:36:10;;;;;;;10.35;7.97;;;22.40;63.70;;;;;;4797663;55;21035;-22
2023/05/15 05:41:10;;;;;;;8.48;7.60;;;22.40;63.60;;;;;;4715996;59;21082;-28
2023/05/15 05:46:14;;;;;;;8.40;6.80;;;22.40;63.70;;;;;;4776666;55;21062;-20
2023/05/15 05:51:15;;;;;;;9.20;7.55;;;22.40;63.60;;;;;;4864752;55;21474;-23
2023/05/15 05:56:16;;;;;;;9.00;7.78;;;22.40;63.70;;;;;;4730702;55;21039;-20
2023/05/15 06:01:17;;;;;;;9.15;7.60;;;22.40;63.60;;;;;;4758848;55;21034;-24
2023/05/15 06:06:18;;;;;;;8.05;7.22;;;22.40;63.60;;;;;;4810152;55;21038;-19
2023/05/15 06:11:19;;;;;;;8.18;7.30;;;22.40;63.60;;;;;;4758008;55;21028;-21
2023/05/15 06:16:20;;;;;;;8.30;7.22;;;22.40;63.60;;;;;;4715174;59;21059;-26
2023/05/15 06:21:21;;;;;;;8.32;7.28;;;22.40;63.60;;;;;;4744048;55;22014;-20
2023/05/15 06:26:22;;;;;;;8.00;7.05;;;22.40;63.60;;;;;;4791001;55;21047;-21
2023/05/15 06:31:23;;;;;;;7.80;6.95;;;22.40;63.50;;;;;;4715843;59;21015;-21
2023/05/15 06:36:24;;;;;;;8.77;7.50;;;22.40;63.50;;;;;;4765317;55;21321;-21
2023/05/15 06:41:26;;;;;;;8.43;7.53;;;22.40;63.60;;;;;;4861878;55;21139;-20
2023/05/15 06:46:27;;;;;;;8.10;7.20;;;22.40;64.00;;;;;;4715760;59;21538;-21
2023/05/15 06:51:30;;;;;;;10.02;8.30;;;22.40;63.50;;;;;;4764197;55;21023;-25
2023/05/15 06:56:31;;;;;;;8.68;7.53;;;22.40;63.50;;;;;;4734796;55;21031;-30
2023/05/15 07:01:32;;;;;;;9.55;8.43;;;22.40;63.50;;;;;;4774366;55;21471;-21
2023/05/15 07:06:33;;;;;;;8.77;7.80;;;22.40;63.50;;;;;;4832008;55;21055;-19
2023/05/15 07:11:36;;;;;;;10.00;7.68;;;22.40;63.50;;;;;;4832307;55;21506;-20
2023/05/15 07:16:37;;;;;;;9.23;7.82;;;22.40;63.40;;;;;;4836588;55;21047;-32
2023/05/15 07:21:39;;;;;;;9.10;8.10;;;22.40;63.40;;;;;;4726844;55;21047;-27
2023/05/15 07:26:39;;;;;;;9.98;8.48;;;22.40;63.40;;;;;;4739147;55;21497;-30
2023/05/15 07:31:43;;;;;;;9.45;8.45;;;22.40;63.50;;;;;;4728683;55;21038;-28
2023/05/15 07:36:44;;;;;;;10.40;8.63;;;22.40;63.40;;;;;;4727135;55;21497;-26
2023/05/15 07:41:45;;;;;;;10.32;8.35;;;22.40;63.40;;;;;;4752531;55;21016;-31
2023/05/15 07:46:46;;;;;;;9.75;8.60;;;22.40;63.30;;;;;;4715246;59;21513;-31
2023/05/15 07:51:47;;;;;;;10.20;8.70;;;22.40;63.40;;;;;;4779238;55;21028;-32
2023/05/15 07:56:48;;;;;;;11.73;9.30;;;22.40;63.30;;;;;;4722300;55;21020;-31
2023/05/15 08:01:49;;;;;;;10.02;8.95;;;22.50;63.30;;;;;;4850352;55;21076;-29
2023/05/15 08:06:50;;;;;;;11.85;9.38;;;22.50;63.30;;;;;;4749623;55;21131;-30
2023/05/15 08:11:50;;;;;;;10.02;9.02;;;22.40;64.00;;;;;;4715603;59;21030;-28
2023/05/15 08:16:51;;;;;;;10.73;9.20;;;22.50;63.40;;;;;;4901522;55;21514;-23
2023/05/15 08:21:52;;;;;;;11.88;9.35;;;22.50;63.40;;;;;;4749556;55;21107;-23
2023/05/15 08:26:53;;;;;;;11.25;9.25;;;22.50;63.30;;;;;;4726480;55;21506;-23
2023/05/15 08:31:54;;;;;;;10.52;9.43;;;22.50;63.30;;;;;;4767241;55;21095;-23
2023/05/15 08:36:55;;;;;;;11.52;9.10;;;22.40;63.20;;;;;;4755847;55;21095;-31
2023/05/15 08:42:23;;;;;;;11.63;10.07;;;22.50;63.30;;;;;;4720942;55;21127;-22
2023/05/15 08:47:28;;;;;;;10.88;9.35;;;22.50;63.20;;;;;;4764767;55;22295;-27
2023/05/15 08:52:31;;;;;;;11.38;9.52;;;22.50;63.20;;;;;;4726367;55;21484;-22
2023/05/15 08:57:32;;;;;;;11.43;9.23;;;22.40;63.20;;;;;;4774502;55;21023;-20
2023/05/15 09:02:34;;;;;;;12.57;9.80;;;22.50;63.30;;;;;;4795829;55;21023;-19
2023/05/15 09:07:38;;;;;;;10.88;9.73;;;22.50;63.30;;;;;;4817312;55;21538;-26
2023/05/15 09:12:43;;;;;;;11.63;10.40;;;22.50;63.20;;;;;;4738433;55;21039;-32
2023/05/15 09:17:45;;;;;;;11.20;9.30;;;22.50;63.40;;;;;;4715452;59;21509;-21
2023/05/15 09:22:45;;;;;;;11.52;9.60;;;22.40;63.20;;;;;;4715053;59;21059;-29
2023/05/15 09:27:46;;;;;;;11.73;10.10;;;22.40;63.20;;;;;;4715902;59;21558;-24
2023/05/15 09:32:48;;;;;;;11.35;10.15;;;22.50;63.20;;;;;;4813561;55;21050;-21
2023/05/15 09:37:58;;;;;;;12.98;9.90;;;22.50;63.20;;;;;;4785899;55;21019;-20
2023/05/15 09:42:59;;;;;;;12.27;9.60;;;22.50;63.10;;;;;;4764853;55;21569;-19
2023/05/15 09:48:04;;;;;;;11.35;9.40;;;22.50;63.20;;;;;;4721740;55;21051;-22
2023/05/15 09:53:05;;;;;;;11.85;9.65;;;22.50;63.90;;;;;;4717720;55;21063;-24
2023/05/15 09:58:12;;;;;;;11.90;10.38;;;22.50;63.20;;;;;;4842338;55;21032;-27
2023/05/15 10:03:17;;;;;;;11.93;9.83;;;22.50;63.30;;;;;;4768450;55;21943;-22
2023/05/15 10:08:27;;;;;;;11.98;9.80;;;22.40;63.20;;;;;;4873653;55;21517;-28
2023/05/15 10:13:33;;;;;;;12.02;10.13;;;22.40;63.10;;;;;;4737796;55;21478;-18
2023/05/15 10:18:35;;;;;;;12.10;10.43;;;22.50;63.20;;;;;;4715216;59;21147;-24
2023/05/15 10:23:37;;;;;;;12.15;10.15;;;22.50;63.20;;;;;;4752521;55;21360;-19
2023/05/15 10:28:39;;;;;;;11.27;9.68;;;22.50;63.20;;;;;;4775984;55;21007;-20
2023/05/15 10:33:40;;;;;;;12.23;10.45;;;22.50;63.20;;;;;;4715544;59;21035;-30
2023/05/15 10:38:43;;;;;;;13.30;10.77;;;22.50;63.20;;;;;;4715114;59;21143;-25
2023/05/15 10:43:45;;;;;;;12.30;10.85;;;22.50;63.30;;;;;;4788752;55;21043;-19
2023/05/15 10:48:46;;;;;;;12.32;10.60;;;22.50;63.20;;;;;;4716305;59;20999;-27
2023/05/15 10:53:48;;;;;;;13.90;11.32;;;22.50;63.30;;;;;;4715437;56;21047;-25
2023/05/15 10:58:50;;;;;;;13.77;11.02;;;22.40;63.20;;;;;;4844091;55;21019;-29
2023/05/15 11:04:03;;;;;;;12.35;10.77;;;22.50;63.20;;;;;;4715425;59;21023;-26
2023/05/15 11:15:52;;;;;;;13.25;11.35;;;22.40;63.20;;;;;;4747466;55;21012;-24
2023/05/15 11:21:14;;;;;;;17.00;11.60;;;22.50;63.30;;;;;;4715273;59;21115;-30
2023/05/15 11:26:15;;;;;;;13.10;11.52;;;22.50;63.20;;;;;;4869872;55;21593;-22
2023/05/15 11:31:15;;;;;;;13.95;11.48;;;22.50;63.20;;;;;;4858714;55;21153;-30
2023/05/15 11:36:22;;;;;;;16.70;12.85;;;22.50;63.20;;;;;;4723561;55;21498;-23
2023/05/15 11:41:30;;;;;;;13.48;11.88;;;22.50;63.20;;;;;;4728583;55;21072;-21
2023/05/15 11:46:32;;;;;;;15.82;12.70;;;22.50;63.10;;;;;;4786763;55;21020;-27
2023/05/15 11:51:34;;;;;;;15.05;13.45;;;22.50;63.20;;;;;;4743013;55;21031;-21
2023/05/15 11:56:40;;;;;;;15.43;12.77;;;22.50;63.00;;;;;;4725147;55;21075;-21
2023/05/15 12:01:42;;;;;;;15.83;13.13;;;22.50;63.10;;;;;;4777206;55;21055;-31
2023/05/15 12:06:46;;;;;;;14.98;13.38;;;22.50;63.10;;;;;;4741850;55;21123;-21
2023/05/15 12:11:51;;;;;;;15.95;13.40;;;22.50;63.10;;;;;;4727373;55;21517;-19
2023/05/15 12:16:52;;;;;;;15.73;13.25;;;22.50;63.10;;;;;;4722810;55;21177;-31
2023/05/15 12:21:53;;;;;;;15.23;13.02;;;22.50;63.10;;;;;;4736421;55;21556;-19
2023/05/15 12:26:56;;;;;;;15.10;13.07;;;22.50;63.20;;;;;;4890307;55;21407;-27
2023/05/15 12:31:57;;;;;;;16.08;13.00;;;22.50;63.20;;;;;;4715354;56;21501;-31
2023/05/15 12:36:58;;;;;;;17.60;13.35;;;22.50;63.20;;;;;;4879139;55;21451;-31
2023/05/15 12:41:59;;;;;;;15.25;13.15;;;22.50;63.20;;;;;;4767403;55;21510;-25
2023/05/15 12:47:00;;;;;;;17.85;14.32;;;22.50;63.20;;;;;;4762225;55;21024;-30
2023/05/15 12:52:08;;;;;;;19.15;13.55;;;22.50;63.20;;;;;;4778004;55;21036;-25
2023/05/15 12:57:10;;;;;;;17.77;14.20;;;22.50;63.30;;;;;;4817670;55;21095;-21
2023/05/15 13:02:13;;;;;;;18.37;13.73;;;22.50;63.40;;;;;;4716097;59;21055;-18
2023/05/15 13:07:17;;;;;;;16.65;14.23;;;22.50;63.40;;;;;;4787138;55;21592;-21
2023/05/15 13:12:21;;;;;;;20.00;14.32;;;22.50;63.40;;;;;;4743731;55;21240;-23
2023/05/15 13:17:22;;;;;;;26.55;16.55;;;22.50;63.50;;;;;;4721545;55;21461;-34
2023/05/15 13:22:23;;;;;;;23.12;15.57;;;22.50;63.70;;;;;;4776303;55;21107;-24
2023/05/15 13:27:24;;;;;;;128.05;111.07;;;22.60;63.60;;;;;;4713682;55;21031;-41
2023/05/15 13:32:25;;;;;;;206.40;151.18;;;22.70;64.70;;;;;;4737697;55;21008;-39
2023/05/15 13:37:26;;;;;;;195.10;147.68;;;22.50;65.30;;;;;;4806165;55;21031;-33
2023/05/15 13:42:27;;;;;;;155.48;107.18;;;22.50;66.30;;;;;;4714157;59;21447;-28
2023/05/15 13:47:27;;;;;;;148.75;101.35;;;22.40;66.00;;;;;;4713504;59;21076;-39
2023/05/15 13:52:28;;;;;;;130.15;85.20;;;22.40;66.20;;;;;;4773774;55;21466;-35
2023/05/15 13:57:30;;;;;;;164.70;121.72;;;22.40;66.80;;;;;;4755871;55;21365;-33
2023/05/15 14:02:31;;;;;;;129.30;93.03;;;22.50;67.20;;;;;;4771526;55;21506;-41
2023/05/15 14:07:31;;;;;;;157.45;116.47;;;22.40;66.80;;;;;;4781067;55;21039;-39
2023/05/15 14:12:32;;;;;;;162.75;124.20;;;22.40;67.10;;;;;;5078029;55;21131;-37
2023/05/15 14:17:33;;;;;;;122.80;94.87;;;22.30;67.20;;;;;;4728424;55;21048;-43
2023/05/15 14:22:37;;;;;;;95.32;73.35;;;22.40;67.20;;;;;;5030370;55;21851;-34
2023/05/15 14:27:38;;;;;;;105.32;80.75;;;22.40;66.70;;;;;;4756728;55;21478;-35
2023/05/15 14:32:40;;;;;;;99.78;75.55;;;22.40;66.90;;;;;;4712206;59;21040;-34
2023/05/15 14:37:41;;;;;;;97.03;75.05;;;22.50;66.50;;;;;;4723066;55;21585;-36
2023/05/15 14:42:42;;;;;;;100.50;78.07;;;22.50;66.40;;;;;;4717644;55;21870;-34
2023/05/15 14:47:43;;;;;;;97.22;75.87;;;22.50;66.30;;;;;;4712877;59;21019;-34
2023/05/15 14:52:45;;;;;;;93.15;72.28;;;22.50;66.10;;;;;;4767121;55;21150;-33
2023/05/15 14:57:48;;;;;;;93.57;74.80;;;22.50;66.10;;;;;;4735902;55;21493;-36
2023/05/15 15:02:48;;;;;;;94.35;74.35;;;22.50;66.00;;;;;;4725059;55;21489;-39
2023/05/15 15:08:23;;;;;;;93.10;75.53;;;22.50;65.90;;;;;;4717453;55;21047;-33
2023/05/15 15:13:26;;;;;;;93.65;73.87;;;22.50;65.90;;;;;;4716911;55;21564;-33
2023/05/15 15:18:27;;;;;;;90.82;73.20;;;22.50;65.90;;;;;;4757472;55;21606;-36
2023/05/15 15:23:27;;;;;;;93.68;72.93;;;22.50;65.90;;;;;;4714848;59;21015;-34
2023/05/15 15:28:32;;;;;;;83.80;68.43;;;22.50;65.80;;;;;;4727850;55;21059;-33
2023/05/15 15:33:33;;;;;;;88.15;72.95;;;22.50;65.80;;;;;;4834364;55;21114;-33
2023/05/15 15:38:34;;;;;;;88.30;70.18;;;22.50;65.80;;;;;;4781186;55;21019;-38
2023/05/15 15:43:34;;;;;;;81.12;67.25;;;22.50;65.80;;;;;;4715586;55;21080;-35
2023/05/15 15:48:35;;;;;;;91.10;69.15;;;22.50;65.70;;;;;;4753452;55;21060;-36
2023/05/15 15:53:38;;;;;;;84.60;69.30;;;22.50;65.80;;;;;;4819913;55;21125;-36
2023/05/15 15:58:39;;;;;;;85.35;66.97;;;22.50;65.60;;;;;;4758255;55;21059;-34
2023/05/15 16:03:40;;;;;;;81.93;67.80;;;22.50;65.60;;;;;;4789381;55;21024;-35
2023/05/15 16:08:40;;;;;;;86.10;68.50;;;22.50;65.60;;;;;;4745397;55;22011;-36
2023/05/15 16:13:41;;;;;;;77.47;62.10;;;22.50;65.60;;;;;;4718332;55;21020;-36
2023/05/15 16:18:42;;;;;;;79.10;65.43;;;22.50;65.60;;;;;;4713950;59;21542;-36
2023/05/15 16:23:44;;;;;;;80.28;65.45;;;22.50;65.60;;;;;;4741394;55;21439;-35
2023/05/15 16:28:45;;;;;;;75.72;63.53;;;22.50;65.50;;;;;;4714662;59;21474;-34
2023/05/15 16:33:46;;;;;;;77.35;64.93;;;22.50;65.60;;;;;;4714990;59;21079;-36
2023/05/15 16:38:47;;;;;;;79.35;64.57;;;22.50;65.50;;;;;;4713480;59;21189;-36
2023/05/15 16:43:48;;;;;;;83.15;65.87;;;22.50;65.50;;;;;;4721733;55;21100;-36
2023/05/15 16:48:49;;;;;;;77.20;62.15;;;22.50;65.50;;;;;;4776153;55;21609;-37
2023/05/15 16:53:52;;;;;;;77.60;64.22;;;22.50;65.50;;;;;;4714393;56;21083;-42
2023/05/15 16:58:53;;;;;;;74.00;63.70;;;22.50;65.50;;;;;;4741407;55;21879;-34
2023/05/15 17:03:54;;;;;;;77.37;62.33;;;22.50;65.50;;;;;;4758540;55;21364;-35
2023/05/15 17:08:55;;;;;;;76.95;63.00;;;22.50;65.50;;;;;;4751891;55;21881;-36
2023/05/15 17:13:56;;;;;;;75.55;64.00;;;22.50;65.50;;;;;;4740569;55;21618;-36
2023/05/15 17:18:57;;;;;;;74.75;61.47;;;22.50;65.60;;;;;;4753232;55;21991;-34
2023/05/15 17:23:58;;;;;;;74.62;62.28;;;22.50;65.40;;;;;;4714068;59;21036;-36
2023/05/15 17:28:59;;;;;;;70.78;59.67;;;22.50;65.50;;;;;;4736036;55;21506;-34
2023/05/15 17:34:00;;;;;;;71.32;58.85;;;22.50;65.40;;;;;;4733951;55;21079;-35
2023/05/15 17:39:01;;;;;;;74.25;62.28;;;22.50;65.40;;;;;;4714384;59;21019;-34
2023/05/15 17:44:02;;;;;;;72.40;61.25;;;22.50;65.50;;;;;;4851612;55;21027;-35
2023/05/15 17:49:03;;;;;;;73.15;59.35;;;22.50;65.40;;;;;;4743776;55;21031;-34
2023/05/15 17:54:04;;;;;;;71.25;61.13;;;22.50;65.50;;;;;;4779459;55;21075;-35
2023/05/15 17:59:05;;;;;;;69.30;59.42;;;22.50;65.30;;;;;;5026372;55;21027;-34
2023/05/15 18:04:06;;;;;;;70.20;59.10;;;22.50;65.30;;;;;;4806370;55;21035;-38
2023/05/15 18:09:06;;;;;;;71.45;60.65;;;22.50;65.30;;;;;;4714945;59;21050;-36
2023/05/15 18:14:11;;;;;;;66.18;56.65;;;22.50;65.20;;;;;;4715378;55;21182;-35
2023/05/15 18:19:11;;;;;;;66.05;55.35;;;22.50;65.20;;;;;;4743049;55;21055;-34
2023/05/15 18:24:12;;;;;;;67.82;58.92;;;22.50;66.10;;;;;;4776073;55;21019;-38
2023/05/15 18:29:13;;;;;;;68.60;58.92;;;22.50;65.30;;;;;;4731769;55;21050;-35
2023/05/15 18:34:14;;;;;;;71.12;59.35;;;22.50;65.30;;;;;;4780612;55;21027;-37
2023/05/15 18:39:15;;;;;;;63.87;56.03;;;22.50;65.20;;;;;;4724538;55;21515;-36
2023/05/15 18:44:16;;;;;;;66.10;55.90;;;22.50;65.30;;;;;;4769006;55;21031;-36
2023/05/15 18:49:16;;;;;;;68.57;57.62;;;22.50;65.30;;;;;;4847046;55;21356;-35
2023/05/15 18:54:17;;;;;;;63.92;53.83;;;22.50;65.30;;;;;;4718684;55;21435;-35
2023/05/15 18:59:18;;;;;;;63.50;54.15;;;22.50;65.30;;;;;;4799908;55;21384;-37
2023/05/15 19:04:20;;;;;;;67.45;57.22;;;22.50;65.30;;;;;;4791069;55;21916;-35
2023/05/15 19:09:20;;;;;;;64.12;54.97;;;22.50;65.30;;;;;;4777204;55;21102;-34
2023/05/15 19:14:21;;;;;;;64.97;57.15;;;22.50;65.30;;;;;;4741587;55;21063;-34
2023/05/15 19:19:22;;;;;;;64.32;56.53;;;22.50;65.30;;;;;;4811255;55;21526;-35
2023/05/15 19:24:23;;;;;;;62.05;54.78;;;22.50;65.40;;;;;;4726366;55;21067;-34
2023/05/15 19:29:25;;;;;;;64.82;54.05;;;22.50;65.30;;;;;;4714976;59;21035;-37
2023/05/15 19:34:25;;;;;;;63.97;55.20;;;22.50;65.30;;;;;;4728102;55;21035;-37
2023/05/15 19:39:26;;;;;;;64.28;54.90;;;22.50;65.20;;;;;;4714202;59;21582;-34
2023/05/15 19:44:27;;;;;;;66.85;56.40;;;22.50;65.30;;;;;;4741775;55;21055;-36
2023/05/15 19:49:28;;;;;;;62.42;53.90;;;22.50;65.30;;;;;;4760526;55;21518;-36
2023/05/15 19:54:29;;;;;;;61.45;54.38;;;22.50;65.30;;;;;;4734560;55;21023;-36
2023/05/15 19:59:29;;;;;;;60.95;53.33;;;22.50;65.30;;;;;;4745963;55;21115;-38
2023/05/15 20:04:31;;;;;;;58.60;52.17;;;22.50;65.30;;;;;;4738243;55;21039;-35
2023/05/15 20:09:32;;;;;;;57.85;51.40;;;22.50;65.40;;;;;;4768216;55;21581;-36
2023/05/15 20:14:33;;;;;;;57.90;51.72;;;22.50;65.30;;;;;;4843197;55;21016;-38
2023/05/15 20:19:33;;;;;;;60.30;51.95;;;22.50;65.30;;;;;;4755575;55;21531;-35
2023/05/15 20:24:34;;;;;;;61.42;52.45;;;22.50;65.30;;;;;;4765642;55;21011;-38
2023/05/15 20:29:35;;;;;;;58.60;50.40;;;22.50;65.20;;;;;;4732673;55;21514;-35
2023/05/15 20:34:36;;;;;;;56.85;50.33;;;22.50;65.30;;;;;;4746601;55;21003;-36
2023/05/15 20:39:37;;;;;;;59.00;50.80;;;22.50;65.30;;;;;;4816167;55;21028;-35
2023/05/15 20:44:38;;;;;;;57.20;49.92;;;22.50;65.30;;;;;;4714918;59;21510;-35
2023/05/15 20:49:39;;;;;;;57.45;49.55;;;22.50;65.30;;;;;;4769969;55;21047;-34
2023/05/15 20:54:40;;;;;;;56.40;48.83;;;22.50;65.30;;;;;;4743658;55;21015;-35
2023/05/15 20:59:41;;;;;;;55.05;49.00;;;22.50;65.40;;;;;;4744921;55;21099;-35
2023/05/15 21:04:41;;;;;;;55.00;48.70;;;22.50;65.30;;;;;;4770004;55;21067;-35
2023/05/15 21:09:43;;;;;;;53.65;47.75;;;22.50;65.30;;;;;;4743709;55;21530;-33
2023/05/15 21:14:44;;;;;;;57.55;48.90;;;22.50;65.30;;;;;;4769849;55;21016;-36
2023/05/15 21:19:47;;;;;;;54.95;47.58;;;22.50;65.30;;;;;;4765580;55;21593;-34
2023/05/15 21:24:48;;;;;;;54.72;48.08;;;22.50;65.30;;;;;;4760573;55;21498;-35
2023/05/15 21:29:48;;;;;;;53.92;46.95;;;22.50;65.40;;;;;;4736835;55;21035;-35
2023/05/15 21:34:49;;;;;;;52.60;46.88;;;22.50;65.30;;;;;;4765010;55;21494;-35
2023/05/15 21:39:50;;;;;;;54.03;47.13;;;22.50;65.40;;;;;;4725657;55;21114;-35
2023/05/15 21:44:51;;;;;;;56.70;49.28;;;22.50;65.40;;;;;;4718951;55;21075;-35
2023/05/15 21:49:52;;;;;;;53.00;47.05;;;22.50;65.30;;;;;;4715281;56;21011;-35
2023/05/15 21:54:52;;;;;;;50.12;44.63;;;22.50;65.40;;;;;;4728265;55;21368;-34
2023/05/15 21:59:53;;;;;;;49.92;43.20;;;22.50;65.40;;;;;;4782292;55;21589;-35
2023/05/15 22:04:54;;;;;;;52.88;47.08;;;22.50;65.50;;;;;;4717149;55;21007;-38
2023/05/15 22:09:56;;;;;;;50.33;43.17;;;22.50;65.40;;;;;;4729817;55;21039;-34
2023/05/15 22:14:57;;;;;;;52.60;44.80;;;22.50;65.40;;;;;;4883294;55;21040;-34
2023/05/15 22:20:06;;;;;;;49.88;43.80;;;22.50;65.30;;;;;;4873061;55;21051;-35
2023/05/15 22:25:07;;;;;;;51.72;46.17;;;22.50;65.40;;;;;;4715050;59;21558;-36
2023/05/15 22:30:09;;;;;;;47.30;41.90;;;22.50;65.30;;;;;;4730714;55;21007;-34
2023/05/15 22:35:10;;;;;;;49.45;43.92;;;22.50;65.40;;;;;;4771310;55;20995;-35
2023/05/15 22:40:12;;;;;;;47.47;42.30;;;22.50;65.30;;;;;;4714259;59;21095;-35
2023/05/15 22:45:13;;;;;;;44.97;40.10;;;22.50;65.40;;;;;;4778453;55;21561;-33
2023/05/15 22:50:14;;;;;;;46.83;41.25;;;22.50;65.40;;;;;;4720698;55;21070;-34
2023/05/15 22:55:14;;;;;;;48.08;42.33;;;22.50;65.40;;;;;;4714678;59;21032;-35
2023/05/15 23:00:17;;;;;;;46.75;41.33;;;22.50;65.40;;;;;;4723975;55;21514;-33
2023/05/15 23:05:18;;;;;;;48.90;43.28;;;22.50;65.40;;;;;;4733453;55;21502;-35
2023/05/15 23:10:19;;;;;;;48.72;43.42;;;22.50;66.00;;;;;;4735405;55;21019;-37
2023/05/15 23:15:20;;;;;;;44.97;39.88;;;22.50;65.40;;;;;;4727647;55;21035;-35
2023/05/15 23:20:21;;;;;;;48.40;43.15;;;22.50;65.40;;;;;;4733391;55;21048;-29
2023/05/15 23:25:21;;;;;;;44.60;39.15;;;22.50;65.30;;;;;;4759604;55;21019;-36
2023/05/15 23:30:22;;;;;;;47.97;42.72;;;22.50;65.30;;;;;;4732962;55;21043;-39
2023/05/15 23:35:23;;;;;;;45.80;40.97;;;22.50;65.40;;;;;;4776888;55;21487;-31
2023/05/15 23:40:24;;;;;;;46.75;41.70;;;22.50;65.40;;;;;;4814338;55;21075;-39
2023/05/15 23:45:25;;;;;;;45.55;40.65;;;22.40;65.30;;;;;;4714378;59;21494;-37
2023/05/15 23:50:26;;;;;;;44.15;39.42;;;22.50;65.40;;;;;;4714615;59;21123;-36
2023/05/15 23:55:27;;;;;;;45.08;40.05;;;22.50;65.40;;;;;;4715169;59;21482;-37
